»·PEaware :: N694FB KJAC-KBOI

N694FB :: KJAC-KBOI

FLIGHT INFORMATION

Flight Status: Arrived
Operator: Privately registered:
United States
More flights under this callsign
Pilot: Andrew G. (414)
Aircraft: SOCATA TBM-900
(TBM9)
More flights by this aircraft type
Origin: KJAC Jackson Hole
United States
Destination: KBOI Boise Air Terminal/Gowen
United States
More flights between these airports :: More routes between these airports
Route: ALPIN2 IDA KOURT KOURT3
File this flight plan on PilotEdge
Remarks: RMK / SIMBRIEF
Altitude:
(Current/Filed)
30,000ft
Speed:
(Current/Filed)
319kts
Departed: 01-Sep-21 06:43 AM
Arrived: 01-Sep-21 07:48 AM
Distance/Time
Traveled:
239nm/1:05
Distance/Time
To Go:
Arrived

Flight Plot

Page will automatically refresh every two minutes.

Flight plan parsing failed; only flown route is shown


Map Options




Map Legend


Flown Route
Filed Route
Departure Airport
Arrival Airport
Navaid (VOR, NDB)
Fix

Horizontal Profiles

Position Reports

Time Latitude Longitude Heading Altitude Ground
Speed
01-Sep-21 06:15 43.598919 -110.738978 101 6414ft 0kts
01-Sep-21 06:16 43.598919 -110.738978 101 6414ft 0kts
01-Sep-21 06:17 43.598919 -110.738978 101 6414ft 0kts
01-Sep-21 06:18 43.598919 -110.738978 101 6414ft 0kts
01-Sep-21 06:19 43.598919 -110.738978 101 6414ft 0kts
01-Sep-21 06:20 43.598919 -110.738978 101 6414ft 0kts
01-Sep-21 06:21 43.598919 -110.738978 101 6414ft 0kts
01-Sep-21 06:22 43.598919 -110.738978 101 6414ft 0kts
01-Sep-21 06:23 43.598919 -110.738978 101 6414ft 0kts
01-Sep-21 06:24 43.598919 -110.738978 101 6414ft 0kts
01-Sep-21 06:25 43.598919 -110.738978 101 6414ft 0kts
01-Sep-21 06:26 43.598919 -110.738978 101 6414ft 0kts
01-Sep-21 06:27 43.598919 -110.738978 101 6414ft 0kts
01-Sep-21 06:28 43.598919 -110.738978 101 6414ft 0kts
01-Sep-21 06:29 43.598919 -110.738978 101 6414ft 0kts
01-Sep-21 06:30 43.598919 -110.738978 101 6414ft 0kts
01-Sep-21 06:31 43.598919 -110.738978 101 6414ft 0kts
01-Sep-21 06:32 43.598919 -110.738978 101 6414ft 0kts
01-Sep-21 06:33 43.598919 -110.738978 101 6414ft 0kts
01-Sep-21 06:34 43.598919 -110.738978 101 6414ft 0kts
01-Sep-21 06:35 43.598919 -110.738978 101 6414ft 0kts
01-Sep-21 06:36 43.598919 -110.738978 101 6414ft 0kts
01-Sep-21 06:37 43.599716 -110.739854 17 6414ft 17kts
01-Sep-21 06:38 43.603234 -110.738131 13 6421ft 11kts
01-Sep-21 06:39 43.606978 -110.736413 20 6428ft 15kts
01-Sep-21 06:40 43.611701 -110.734080 21 6437ft 20kts
01-Sep-21 06:41 43.615098 -110.734008 197 6442ft 13kts
01-Sep-21 06:42 43.586792 -110.747907 204 7446ft 138kts
01-Sep-21 06:43 43.545195 -110.780092 204 9574ft 171kts
01-Sep-21 06:44 43.500497 -110.808548 204 12067ft 159kts
01-Sep-21 06:45 43.455222 -110.837786 206 13765ft 184kts
01-Sep-21 06:46 43.403186 -110.869453 209 15212ft 196kts
01-Sep-21 06:47 43.350350 -110.903458 210 16723ft 200kts
01-Sep-21 06:48 43.296795 -110.937916 211 17882ft 204kts
01-Sep-21 06:49 43.241055 -110.973701 211 19338ft 207kts
01-Sep-21 06:50 43.234257 -111.042182 285 20719ft 206kts
01-Sep-21 06:51 43.256735 -111.121363 285 22063ft 211kts
01-Sep-21 06:52 43.279489 -111.201703 284 23341ft 213kts
01-Sep-21 06:53 43.302925 -111.284871 284 24086ft 233kts
01-Sep-21 06:54 43.329277 -111.378625 285 24074ft 255kts
01-Sep-21 06:55 43.356761 -111.476665 285 24070ft 260kts
01-Sep-21 06:56 43.384153 -111.574826 285 24068ft 260kts
01-Sep-21 06:57 43.410906 -111.671130 284 24076ft 259kts
01-Sep-21 06:58 43.438053 -111.769156 284 24075ft 259kts
01-Sep-21 06:59 43.464761 -111.866017 284 24070ft 258kts
01-Sep-21 07:00 43.490992 -111.961514 284 24040ft 258kts
01-Sep-21 07:01 43.516753 -112.055725 284 24010ft 257kts
01-Sep-21 07:02 43.516966 -112.151681 265 23998ft 248kts
01-Sep-21 07:03 43.514588 -112.246863 265 23997ft 248kts
01-Sep-21 07:04 43.512167 -112.342516 265 23996ft 248kts
01-Sep-21 07:05 43.509664 -112.437669 265 23995ft 249kts
01-Sep-21 07:06 43.498070 -112.531028 254 23995ft 248kts
01-Sep-21 07:07 43.478993 -112.623706 254 23994ft 248kts
01-Sep-21 07:08 43.459859 -112.715752 253 24002ft 249kts
01-Sep-21 07:09 43.440415 -112.808913 252 24002ft 253kts
01-Sep-21 07:10 43.420737 -112.902656 252 24007ft 254kts
01-Sep-21 07:11 43.400175 -113.000204 252 24013ft 254kts
01-Sep-21 07:12 43.379596 -113.097382 252 24017ft 254kts
01-Sep-21 07:13 43.359029 -113.194047 252 24016ft 254kts
01-Sep-21 07:14 43.338651 -113.289382 252 24015ft 253kts
01-Sep-21 07:15 43.318272 -113.384294 252 24014ft 253kts
01-Sep-21 07:16 43.297673 -113.479801 252 24013ft 253kts
01-Sep-21 07:17 43.277150 -113.574528 252 24012ft 252kts
01-Sep-21 07:18 43.256550 -113.669152 252 24020ft 251kts
01-Sep-21 07:19 43.235561 -113.765187 252 24019ft 252kts
01-Sep-21 07:20 43.214638 -113.860467 252 24018ft 252kts
01-Sep-21 07:21 43.193766 -113.955085 252 24016ft 253kts
01-Sep-21 07:22 43.172912 -114.049246 251 24015ft 252kts
01-Sep-21 07:23 43.173190 -114.145145 279 24019ft 260kts
01-Sep-21 07:24 43.192838 -114.244758 279 24030ft 259kts
01-Sep-21 07:25 43.212390 -114.345729 279 23210ft 284kts
01-Sep-21 07:26 43.234018 -114.457733 279 20988ft 286kts
01-Sep-21 07:27 43.254259 -114.563236 280 19174ft 279kts
01-Sep-21 07:28 43.273946 -114.666424 279 18219ft 268kts
01-Sep-21 07:29 43.294546 -114.775027 280 16230ft 280kts
01-Sep-21 07:30 43.315208 -114.884446 281 14918ft 273kts
01-Sep-21 07:31 43.335198 -114.990986 281 14021ft 267kts
01-Sep-21 07:32 43.354150 -115.092411 281 14021ft 253kts
01-Sep-21 07:34 43.385577 -115.188262 292 13128ft 270kts
01-Sep-21 07:35 43.419498 -115.287887 293 11538ft 273kts
01-Sep-21 07:36 43.451390 -115.386214 293 10018ft 264kts
01-Sep-21 07:37 43.480209 -115.477290 293 9997ft 242kts
01-Sep-21 07:38 43.508721 -115.567024 293 10000ft 245kts
01-Sep-21 07:39 43.537274 -115.656581 292 9999ft 245kts
01-Sep-21 07:40 43.566473 -115.747842 292 10000ft 245kts
01-Sep-21 07:41 43.591051 -115.840270 273 9871ft 249kts
01-Sep-21 07:42 43.595467 -115.944764 272 8925ft 265kts
01-Sep-21 07:43 43.598778 -116.051323 266 7869ft 272kts
01-Sep-21 07:44 43.582585 -116.141263 250 5978ft 203kts
01-Sep-21 07:45 43.571390 -116.210527 291 4352ft 165kts
01-Sep-21 07:46 43.591451 -116.254446 275 3740ft 115kts
01-Sep-21 07:47 43.571784 -116.241695 117 2939ft 88kts
01-Sep-21 07:48 43.566275 -116.224270 56 2844ft 12kts
01-Sep-21 07:49 43.567666 -116.225896 297 2842ft 16kts
01-Sep-21 07:50 43.569598 -116.228060 26 2838ft 7kts
01-Sep-21 07:51 43.569895 -116.229297 180 2836ft 0kts
01-Sep-21 07:52 43.569895 -116.229297 181 2836ft 0kts
01-Sep-21 07:53 43.569895 -116.229297 181 2836ft 0kts

Navigation Log

Ident Type
Flight plan parsing failed, navigation log unavailable